KAIK/AIK METAR and TAF weather

Enter ICAO airport designator
Station Type Date Time Source
KAIK METAR 2018/01/24 07:35 UTC NOAA

KAIK 240735Z AUTO 27006KT 10SM CLR 05/00 A3012 RMK AO2


Station Type Date Time Source
KAIK Decoded METAR 2018/01/24 07:35 UTC NOAA

Station name not available
Jan 24, 2018 - 02:35 AM EST / 2018.01.24 0735 UTC
Wind: from the W (270 degrees) at 7 MPH (6 KT):0
Visibility: 10 mile(s):0
Sky conditions: clear
Temperature: 41 F (5 C)
Dew Point: 32 F (0 C)
Relative Humidity: 70%
Pressure (altimeter): 30.12 in. Hg (1019 hPa)
ob: KAIK 240735Z AUTO 27006KT 10SM CLR 05/00 A3012 RMK AO2
cycle: 7

Station Type Date Time Source
KAIK TAF UTC NOAA

Error!


Example: see airport list